sensor_id;sensor_type;location;lat;lon;timestamp;temperature;humidity
947;DHT22;460;48.734;9.152;2024-01-06T00:02:09;4.80;99.90
947;DHT22;460;48.734;9.152;2024-01-06T00:04:36;4.80;99.90
947;DHT22;460;48.734;9.152;2024-01-06T00:07:03;4.90;99.90
947;DHT22;460;48.734;9.152;2024-01-06T00:09:29;4.80;99.90
947;DHT22;460;48.734;9.152;2024-01-06T00:11:56;4.80;99.90
947;DHT22;460;48.734;9.152;2024-01-06T00:14:23;4.90;99.90
947;DHT22;460;48.734;9.152;2024-01-06T00:16:50;4.90;99.90
947;DHT22;460;48.734;9.152;2024-01-06T00:19:18;4.90;99.90
947;DHT22;460;48.734;9.152;2024-01-06T00:21:45;4.90;99.90
947;DHT22;460;48.734;9.152;2024-01-06T00:24:11;4.90;99.90
947;DHT22;460;48.734;9.152;2024-01-06T00:26:38;4.90;99.90
947;DHT22;460;48.734;9.152;2024-01-06T00:29:05;4.90;99.90
947;DHT22;460;48.734;9.152;2024-01-06T00:31:32;4.90;99.90
947;DHT22;460;48.734;9.152;2024-01-06T00:33:59;4.90;99.90
947;DHT22;460;48.734;9.152;2024-01-06T00:36:27;4.90;99.90
947;DHT22;460;48.734;9.152;2024-01-06T00:38:54;4.90;99.90
947;DHT22;460;48.734;9.152;2024-01-06T00:41:20;4.90;99.90
947;DHT22;460;48.734;9.152;2024-01-06T00:43:47;4.90;99.90
947;DHT22;460;48.734;9.152;2024-01-06T00:46:14;4.90;99.90
947;DHT22;460;48.734;9.152;2024-01-06T00:48:41;4.90;99.90
947;DHT22;460;48.734;9.152;2024-01-06T00:51:08;4.90;99.90
947;DHT22;460;48.734;9.152;2024-01-06T00:53:36;4.80;99.90
947;DHT22;460;48.734;9.152;2024-01-06T00:56:03;4.90;99.90
947;DHT22;460;48.734;9.152;2024-01-06T00:58:30;4.80;99.90
947;DHT22;460;48.734;9.152;2024-01-06T01:00:57;4.90;99.90
947;DHT22;460;48.734;9.152;2024-01-06T01:03:24;4.90;99.90
947;DHT22;460;48.734;9.152;2024-01-06T01:05:52;4.90;99.90
947;DHT22;460;48.734;9.152;2024-01-06T01:08:19;4.90;99.90
947;DHT22;460;48.734;9.152;2024-01-06T01:10:48;4.80;99.90
947;DHT22;460;48.734;9.152;2024-01-06T01:13:15;4.80;99.90
947;DHT22;460;48.734;9.152;2024-01-06T01:15:42;4.80;99.90
947;DHT22;460;48.734;9.152;2024-01-06T01:18:09;4.80;99.90
947;DHT22;460;48.734;9.152;2024-01-06T01:20:36;4.80;99.90
947;DHT22;460;48.734;9.152;2024-01-06T01:23:03;4.70;99.90
947;DHT22;460;48.734;9.152;2024-01-06T01:25:30;4.80;99.90
947;DHT22;460;48.734;9.152;2024-01-06T01:27:58;4.70;99.90
947;DHT22;460;48.734;9.152;2024-01-06T01:30:24;4.80;99.90
947;DHT22;460;48.734;9.152;2024-01-06T01:32:51;4.70;99.90
947;DHT22;460;48.734;9.152;2024-01-06T01:35:18;4.80;99.90
947;DHT22;460;48.734;9.152;2024-01-06T01:37:45;4.70;99.90
947;DHT22;460;48.734;9.152;2024-01-06T01:40:12;4.80;99.90
947;DHT22;460;48.734;9.152;2024-01-06T01:42:39;4.80;99.90
947;DHT22;460;48.734;9.152;2024-01-06T01:45:09;4.80;99.90
947;DHT22;460;48.734;9.152;2024-01-06T01:47:36;4.80;99.90
947;DHT22;460;48.734;9.152;2024-01-06T01:50:05;4.70;99.90
947;DHT22;460;48.734;9.152;2024-01-06T01:52:32;4.70;99.90
947;DHT22;460;48.734;9.152;2024-01-06T01:54:59;4.70;99.90
947;DHT22;460;48.734;9.152;2024-01-06T01:57:26;4.70;99.90
947;DHT22;460;48.734;9.152;2024-01-06T01:59:54;4.70;99.90
947;DHT22;460;48.734;9.152;2024-01-06T02:02:23;4.70;99.90
947;DHT22;460;48.734;9.152;2024-01-06T02:04:50;4.60;99.90
947;DHT22;460;48.734;9.152;2024-01-06T02:07:16;4.60;99.90
947;DHT22;460;48.734;9.152;2024-01-06T02:09:44;4.70;99.90
947;DHT22;460;48.734;9.152;2024-01-06T02:12:11;4.70;99.90
947;DHT22;460;48.734;9.152;2024-01-06T02:14:38;4.70;99.90
947;DHT22;460;48.734;9.152;2024-01-06T02:17:04;4.60;99.90
947;DHT22;460;48.734;9.152;2024-01-06T02:19:33;4.60;99.90
947;DHT22;460;48.734;9.152;2024-01-06T02:22:01;4.70;99.90
947;DHT22;460;48.734;9.152;2024-01-06T02:24:28;4.70;99.90
947;DHT22;460;48.734;9.152;2024-01-06T02:26:56;4.70;99.90
947;DHT22;460;48.734;9.152;2024-01-06T02:29:24;4.70;99.90
947;DHT22;460;48.734;9.152;2024-01-06T02:31:52;4.80;99.90
947;DHT22;460;48.734;9.152;2024-01-06T02:34:19;4.70;99.90
947;DHT22;460;48.734;9.152;2024-01-06T02:36:47;4.70;99.90
947;DHT22;460;48.734;9.152;2024-01-06T02:39:16;4.80;99.90
947;DHT22;460;48.734;9.152;2024-01-06T02:41:44;4.80;99.90
947;DHT22;460;48.734;9.152;2024-01-06T02:44:12;4.80;99.90
947;DHT22;460;48.734;9.152;2024-01-06T02:46:41;4.90;99.90
947;DHT22;460;48.734;9.152;2024-01-06T02:49:09;4.80;99.90
947;DHT22;460;48.734;9.152;2024-01-06T02:51:38;4.80;99.90
947;DHT22;460;48.734;9.152;2024-01-06T02:54:05;4.70;99.90
947;DHT22;460;48.734;9.152;2024-01-06T02:56:34;4.70;99.90
947;DHT22;460;48.734;9.152;2024-01-06T02:59:02;4.70;99.90
947;DHT22;460;48.734;9.152;2024-01-06T03:01:31;4.70;99.90
947;DHT22;460;48.734;9.152;2024-01-06T03:03:59;4.70;99.90
947;DHT22;460;48.734;9.152;2024-01-06T03:06:27;4.70;99.90
947;DHT22;460;48.734;9.152;2024-01-06T03:08:54;4.70;99.90
947;DHT22;460;48.734;9.152;2024-01-06T03:11:22;4.70;99.90
947;DHT22;460;48.734;9.152;2024-01-06T03:13:50;4.70;99.90
947;DHT22;460;48.734;9.152;2024-01-06T03:16:18;4.70;99.90
947;DHT22;460;48.734;9.152;2024-01-06T03:18:46;4.70;99.90
947;DHT22;460;48.734;9.152;2024-01-06T03:21:19;4.70;99.90
947;DHT22;460;48.734;9.152;2024-01-06T03:23:48;4.60;99.90
947;DHT22;460;48.734;9.152;2024-01-06T03:26:16;4.60;99.90
947;DHT22;460;48.734;9.152;2024-01-06T03:28:43;4.50;99.90
947;DHT22;460;48.734;9.152;2024-01-06T03:31:12;4.50;99.90
947;DHT22;460;48.734;9.152;2024-01-06T03:33:39;4.50;99.90
947;DHT22;460;48.734;9.152;2024-01-06T03:36:08;4.50;99.90
947;DHT22;460;48.734;9.152;2024-01-06T03:38:35;4.60;99.90
947;DHT22;460;48.734;9.152;2024-01-06T03:41:03;4.60;99.90
947;DHT22;460;48.734;9.152;2024-01-06T03:43:31;4.50;99.90
947;DHT22;460;48.734;9.152;2024-01-06T03:45:59;4.40;99.90
947;DHT22;460;48.734;9.152;2024-01-06T03:48:28;4.40;99.90
947;DHT22;460;48.734;9.152;2024-01-06T03:50:55;4.40;99.90
947;DHT22;460;48.734;9.152;2024-01-06T03:53:22;4.40;99.90
947;DHT22;460;48.734;9.152;2024-01-06T03:55:49;4.40;99.90
947;DHT22;460;48.734;9.152;2024-01-06T03:58:15;4.40;99.90
947;DHT22;460;48.734;9.152;2024-01-06T04:00:42;4.40;99.90
947;DHT22;460;48.734;9.152;2024-01-06T04:03:09;4.40;99.90
947;DHT22;460;48.734;9.152;2024-01-06T04:05:37;4.40;99.90
947;DHT22;460;48.734;9.152;2024-01-06T04:08:04;4.40;99.90
947;DHT22;460;48.734;9.152;2024-01-06T04:10:31;4.50;99.90
947;DHT22;460;48.734;9.152;2024-01-06T04:12:58;4.40;99.90
947;DHT22;460;48.734;9.152;2024-01-06T04:15:24;4.40;99.90
947;DHT22;460;48.734;9.152;2024-01-06T04:17:52;4.40;99.90
947;DHT22;460;48.734;9.152;2024-01-06T04:20:18;4.40;99.90
947;DHT22;460;48.734;9.152;2024-01-06T04:22:47;4.40;99.90
947;DHT22;460;48.734;9.152;2024-01-06T04:25:13;4.40;99.90
947;DHT22;460;48.734;9.152;2024-01-06T04:27:40;4.40;99.90
947;DHT22;460;48.734;9.152;2024-01-06T04:30:08;4.40;99.90
947;DHT22;460;48.734;9.152;2024-01-06T04:32:35;4.40;99.90
947;DHT22;460;48.734;9.152;2024-01-06T04:35:01;4.30;99.90
947;DHT22;460;48.734;9.152;2024-01-06T04:37:28;4.30;99.90
947;DHT22;460;48.734;9.152;2024-01-06T04:39:57;4.30;99.90
947;DHT22;460;48.734;9.152;2024-01-06T04:42:23;4.20;99.90
947;DHT22;460;48.734;9.152;2024-01-06T04:44:50;4.30;99.90
947;DHT22;460;48.734;9.152;2024-01-06T04:47:17;4.20;99.90
947;DHT22;460;48.734;9.152;2024-01-06T04:49:44;4.30;99.90
947;DHT22;460;48.734;9.152;2024-01-06T04:52:11;4.30;99.90
947;DHT22;460;48.734;9.152;2024-01-06T04:54:38;4.30;99.90
947;DHT22;460;48.734;9.152;2024-01-06T04:57:06;4.30;99.90
947;DHT22;460;48.734;9.152;2024-01-06T04:59:33;4.30;99.90
947;DHT22;460;48.734;9.152;2024-01-06T05:02:00;4.30;99.90
947;DHT22;460;48.734;9.152;2024-01-06T05:04:27;4.30;99.90
947;DHT22;460;48.734;9.152;2024-01-06T05:06:56;4.30;99.90
947;DHT22;460;48.734;9.152;2024-01-06T05:09:23;4.30;99.90
947;DHT22;460;48.734;9.152;2024-01-06T05:11:49;4.30;99.90
947;DHT22;460;48.734;9.152;2024-01-06T05:14:17;4.30;99.90
947;DHT22;460;48.734;9.152;2024-01-06T05:16:44;4.30;99.90
947;DHT22;460;48.734;9.152;2024-01-06T05:19:11;4.30;99.90
947;DHT22;460;48.734;9.152;2024-01-06T05:21:44;4.30;99.90
947;DHT22;460;48.734;9.152;2024-01-06T05:24:11;4.40;99.90
947;DHT22;460;48.734;9.152;2024-01-06T05:26:38;4.30;99.90
947;DHT22;460;48.734;9.152;2024-01-06T05:29:05;4.30;99.90
947;DHT22;460;48.734;9.152;2024-01-06T05:31:33;4.40;99.90
947;DHT22;460;48.734;9.152;2024-01-06T05:34:00;4.30;99.90
947;DHT22;460;48.734;9.152;2024-01-06T05:36:27;4.30;99.90
947;DHT22;460;48.734;9.152;2024-01-06T05:38:54;4.40;99.90
947;DHT22;460;48.734;9.152;2024-01-06T05:41:20;4.30;99.90
947;DHT22;460;48.734;9.152;2024-01-06T05:43:50;4.30;99.90
947;DHT22;460;48.734;9.152;2024-01-06T05:46:21;4.40;99.90
947;DHT22;460;48.734;9.152;2024-01-06T05:48:49;4.50;99.90
947;DHT22;460;48.734;9.152;2024-01-06T05:51:16;4.40;99.90
947;DHT22;460;48.734;9.152;2024-01-06T05:53:43;4.50;99.90
947;DHT22;460;48.734;9.152;2024-01-06T05:56:10;4.50;99.90
947;DHT22;460;48.734;9.152;2024-01-06T05:58:36;4.50;99.90
947;DHT22;460;48.734;9.152;2024-01-06T06:01:03;4.40;99.90
947;DHT22;460;48.734;9.152;2024-01-06T06:03:30;4.50;99.90
947;DHT22;460;48.734;9.152;2024-01-06T06:05:58;4.60;99.90
947;DHT22;460;48.734;9.152;2024-01-06T06:08:25;4.60;99.90
947;DHT22;460;48.734;9.152;2024-01-06T06:10:52;4.50;99.90
947;DHT22;460;48.734;9.152;2024-01-06T06:13:27;4.50;99.90
947;DHT22;460;48.734;9.152;2024-01-06T06:15:54;4.50;99.90
947;DHT22;460;48.734;9.152;2024-01-06T06:18:21;4.50;99.90
947;DHT22;460;48.734;9.152;2024-01-06T06:20:48;4.60;99.90
947;DHT22;460;48.734;9.152;2024-01-06T06:23:16;4.60;99.90
947;DHT22;460;48.734;9.152;2024-01-06T06:25:43;4.60;99.90
947;DHT22;460;48.734;9.152;2024-01-06T06:28:09;4.60;99.90
947;DHT22;460;48.734;9.152;2024-01-06T06:30:36;4.60;99.90
947;DHT22;460;48.734;9.152;2024-01-06T06:33:03;4.60;99.90
947;DHT22;460;48.734;9.152;2024-01-06T06:35:30;4.60;99.90
947;DHT22;460;48.734;9.152;2024-01-06T06:37:57;4.60;99.90
947;DHT22;460;48.734;9.152;2024-01-06T06:40:26;4.60;99.90
947;DHT22;460;48.734;9.152;2024-01-06T06:42:53;4.70;99.90
947;DHT22;460;48.734;9.152;2024-01-06T06:45:19;4.60;99.90
947;DHT22;460;48.734;9.152;2024-01-06T06:47:48;4.70;99.90
947;DHT22;460;48.734;9.152;2024-01-06T06:50:15;4.70;99.90
947;DHT22;460;48.734;9.152;2024-01-06T06:52:42;4.60;99.90
947;DHT22;460;48.734;9.152;2024-01-06T06:55:09;4.60;99.90
947;DHT22;460;48.734;9.152;2024-01-06T06:57:37;4.60;99.90
947;DHT22;460;48.734;9.152;2024-01-06T07:00:05;4.60;99.90
947;DHT22;460;48.734;9.152;2024-01-06T07:02:33;4.70;99.90
947;DHT22;460;48.734;9.152;2024-01-06T07:05:00;4.60;99.90
947;DHT22;460;48.734;9.152;2024-01-06T07:07:27;4.60;99.90
947;DHT22;460;48.734;9.152;2024-01-06T07:09:53;4.60;99.90
947;DHT22;460;48.734;9.152;2024-01-06T07:12:20;4.50;99.90
947;DHT22;460;48.734;9.152;2024-01-06T07:14:48;4.60;99.90
947;DHT22;460;48.734;9.152;2024-01-06T07:17:15;4.60;99.90
947;DHT22;460;48.734;9.152;2024-01-06T07:19:43;4.60;99.90
947;DHT22;460;48.734;9.152;2024-01-06T07:22:09;4.70;99.90
947;DHT22;460;48.734;9.152;2024-01-06T07:24:36;4.70;99.90
947;DHT22;460;48.734;9.152;2024-01-06T07:27:03;4.60;99.90
947;DHT22;460;48.734;9.152;2024-01-06T07:29:30;4.60;99.90
947;DHT22;460;48.734;9.152;2024-01-06T07:31:57;4.70;99.90
947;DHT22;460;48.734;9.152;2024-01-06T07:34:24;4.70;99.90
947;DHT22;460;48.734;9.152;2024-01-06T07:36:51;4.70;99.90
947;DHT22;460;48.734;9.152;2024-01-06T07:39:18;4.60;99.90
947;DHT22;460;48.734;9.152;2024-01-06T07:41:45;4.60;99.90
947;DHT22;460;48.734;9.152;2024-01-06T07:44:12;4.60;99.90
947;DHT22;460;48.734;9.152;2024-01-06T07:46:38;4.60;99.90
947;DHT22;460;48.734;9.152;2024-01-06T07:49:07;4.50;99.90
947;DHT22;460;48.734;9.152;2024-01-06T07:51:33;4.50;99.90
947;DHT22;460;48.734;9.152;2024-01-06T07:54:00;4.50;99.90
947;DHT22;460;48.734;9.152;2024-01-06T07:56:27;4.50;99.90
947;DHT22;460;48.734;9.152;2024-01-06T07:58:54;4.50;99.90
947;DHT22;460;48.734;9.152;2024-01-06T08:01:21;4.50;99.90
947;DHT22;460;48.734;9.152;2024-01-06T08:03:48;4.60;99.90
947;DHT22;460;48.734;9.152;2024-01-06T08:06:17;4.60;99.90
947;DHT22;460;48.734;9.152;2024-01-06T08:08:44;4.60;99.90
947;DHT22;460;48.734;9.152;2024-01-06T08:11:11;4.70;99.90
947;DHT22;460;48.734;9.152;2024-01-06T08:13:38;4.70;99.90
947;DHT22;460;48.734;9.152;2024-01-06T08:16:05;4.70;99.90
947;DHT22;460;48.734;9.152;2024-01-06T08:18:32;4.60;99.90
947;DHT22;460;48.734;9.152;2024-01-06T08:20:59;4.70;99.90
947;DHT22;460;48.734;9.152;2024-01-06T08:23:27;4.70;99.90
947;DHT22;460;48.734;9.152;2024-01-06T08:25:54;4.80;99.90
947;DHT22;460;48.734;9.152;2024-01-06T08:28:20;4.70;99.90
947;DHT22;460;48.734;9.152;2024-01-06T08:30:48;4.90;99.90
947;DHT22;460;48.734;9.152;2024-01-06T08:33:15;4.90;99.90
947;DHT22;460;48.734;9.152;2024-01-06T08:35:43;4.80;99.90
947;DHT22;460;48.734;9.152;2024-01-06T08:38:09;4.90;99.90
947;DHT22;460;48.734;9.152;2024-01-06T08:40:38;5.00;99.90
947;DHT22;460;48.734;9.152;2024-01-06T08:43:04;5.00;99.90
947;DHT22;460;48.734;9.152;2024-01-06T08:45:31;4.90;99.90
947;DHT22;460;48.734;9.152;2024-01-06T08:47:58;5.00;99.90
947;DHT22;460;48.734;9.152;2024-01-06T08:50:25;5.00;99.90
947;DHT22;460;48.734;9.152;2024-01-06T08:52:52;5.00;99.90
947;DHT22;460;48.734;9.152;2024-01-06T08:55:18;5.10;99.90
947;DHT22;460;48.734;9.152;2024-01-06T08:57:46;5.10;99.90
947;DHT22;460;48.734;9.152;2024-01-06T09:00:14;5.10;99.90
947;DHT22;460;48.734;9.152;2024-01-06T09:02:41;5.10;99.90
947;DHT22;460;48.734;9.152;2024-01-06T09:05:08;5.20;99.90
947;DHT22;460;48.734;9.152;2024-01-06T09:07:35;5.30;99.90
947;DHT22;460;48.734;9.152;2024-01-06T09:10:02;5.30;99.90
947;DHT22;460;48.734;9.152;2024-01-06T09:12:29;5.30;99.90
947;DHT22;460;48.734;9.152;2024-01-06T09:14:57;5.30;99.90
947;DHT22;460;48.734;9.152;2024-01-06T09:17:24;5.30;99.90
947;DHT22;460;48.734;9.152;2024-01-06T09:19:50;5.30;99.90
947;DHT22;460;48.734;9.152;2024-01-06T09:22:19;5.30;99.90
947;DHT22;460;48.734;9.152;2024-01-06T09:24:46;5.30;99.90
947;DHT22;460;48.734;9.152;2024-01-06T09:27:13;5.30;99.90
947;DHT22;460;48.734;9.152;2024-01-06T09:29:40;5.30;99.90
947;DHT22;460;48.734;9.152;2024-01-06T09:32:08;5.30;99.90
947;DHT22;460;48.734;9.152;2024-01-06T09:34:35;5.40;99.90
947;DHT22;460;48.734;9.152;2024-01-06T09:37:02;5.40;99.90
947;DHT22;460;48.734;9.152;2024-01-06T09:39:29;5.40;99.90
947;DHT22;460;48.734;9.152;2024-01-06T09:41:57;5.40;99.90
947;DHT22;460;48.734;9.152;2024-01-06T09:44:24;5.40;99.90
947;DHT22;460;48.734;9.152;2024-01-06T09:46:51;5.40;99.90
947;DHT22;460;48.734;9.152;2024-01-06T09:49:23;5.50;99.90
947;DHT22;460;48.734;9.152;2024-01-06T09:51:50;5.50;99.90
947;DHT22;460;48.734;9.152;2024-01-06T09:54:23;5.50;99.90
947;DHT22;460;48.734;9.152;2024-01-06T09:56:50;5.50;99.90
947;DHT22;460;48.734;9.152;2024-01-06T09:59:20;5.60;99.90
947;DHT22;460;48.734;9.152;2024-01-06T10:01:50;5.60;99.90
947;DHT22;460;48.734;9.152;2024-01-06T10:04:22;5.70;99.90
947;DHT22;460;48.734;9.152;2024-01-06T10:06:49;5.60;99.90
947;DHT22;460;48.734;9.152;2024-01-06T10:09:16;5.60;99.90
947;DHT22;460;48.734;9.152;2024-01-06T10:11:43;5.50;99.90
947;DHT22;460;48.734;9.152;2024-01-06T10:14:12;5.60;99.90
947;DHT22;460;48.734;9.152;2024-01-06T10:16:38;5.60;99.90
947;DHT22;460;48.734;9.152;2024-01-06T10:19:05;5.60;99.90
947;DHT22;460;48.734;9.152;2024-01-06T10:21:33;5.60;99.90
947;DHT22;460;48.734;9.152;2024-01-06T10:24:00;5.60;99.90
947;DHT22;460;48.734;9.152;2024-01-06T10:26:27;5.60;99.90
947;DHT22;460;48.734;9.152;2024-01-06T10:28:56;5.70;99.90
947;DHT22;460;48.734;9.152;2024-01-06T10:31:25;5.70;99.90
947;DHT22;460;48.734;9.152;2024-01-06T10:33:51;5.70;99.90
947;DHT22;460;48.734;9.152;2024-01-06T10:36:18;5.60;99.90
947;DHT22;460;48.734;9.152;2024-01-06T10:38:47;5.60;99.90
947;DHT22;460;48.734;9.152;2024-01-06T10:41:16;5.60;99.90
947;DHT22;460;48.734;9.152;2024-01-06T10:43:44;5.50;99.90
947;DHT22;460;48.734;9.152;2024-01-06T10:46:12;5.50;99.90
947;DHT22;460;48.734;9.152;2024-01-06T10:48:42;5.60;99.90
947;DHT22;460;48.734;9.152;2024-01-06T10:51:10;5.60;99.90
947;DHT22;460;48.734;9.152;2024-01-06T10:53:37;5.60;99.90
947;DHT22;460;48.734;9.152;2024-01-06T10:58:53;5.40;99.90
947;DHT22;460;48.734;9.152;2024-01-06T11:01:22;5.40;99.90
947;DHT22;460;48.734;9.152;2024-01-06T11:03:50;5.40;99.90
947;DHT22;460;48.734;9.152;2024-01-06T11:06:17;5.40;99.90
947;DHT22;460;48.734;9.152;2024-01-06T11:08:50;5.40;99.90
947;DHT22;460;48.734;9.152;2024-01-06T11:11:19;5.30;99.90
947;DHT22;460;48.734;9.152;2024-01-06T11:13:46;5.40;99.90
947;DHT22;460;48.734;9.152;2024-01-06T11:16:33;5.30;99.90
947;DHT22;460;48.734;9.152;2024-01-06T11:19:00;5.30;99.90
947;DHT22;460;48.734;9.152;2024-01-06T11:21:28;5.40;99.90
947;DHT22;460;48.734;9.152;2024-01-06T11:24:20;5.40;99.90
947;DHT22;460;48.734;9.152;2024-01-06T11:26:52;5.60;99.90
947;DHT22;460;48.734;9.152;2024-01-06T11:29:19;5.60;99.90
947;DHT22;460;48.734;9.152;2024-01-06T11:32:24;5.60;99.90
947;DHT22;460;48.734;9.152;2024-01-06T11:34:52;5.70;99.90
947;DHT22;460;48.734;9.152;2024-01-06T11:37:24;5.70;99.90
947;DHT22;460;48.734;9.152;2024-01-06T11:39:50;5.70;99.90
947;DHT22;460;48.734;9.152;2024-01-06T11:42:19;5.60;99.90
947;DHT22;460;48.734;9.152;2024-01-06T11:44:50;5.60;99.90
947;DHT22;460;48.734;9.152;2024-01-06T11:47:18;5.50;99.90
947;DHT22;460;48.734;9.152;2024-01-06T11:49:53;5.70;99.90
947;DHT22;460;48.734;9.152;2024-01-06T11:52:21;5.60;99.90
947;DHT22;460;48.734;9.152;2024-01-06T11:54:48;5.70;99.90
947;DHT22;460;48.734;9.152;2024-01-06T11:57:15;5.70;99.90
947;DHT22;460;48.734;9.152;2024-01-06T11:59:43;5.70;99.90
947;DHT22;460;48.734;9.152;2024-01-06T12:02:13;5.70;99.90
947;DHT22;460;48.734;9.152;2024-01-06T12:04:42;5.60;99.90
947;DHT22;460;48.734;9.152;2024-01-06T12:07:09;5.60;99.90
947;DHT22;460;48.734;9.152;2024-01-06T12:09:38;5.70;99.90
947;DHT22;460;48.734;9.152;2024-01-06T12:12:06;5.70;99.90
947;DHT22;460;48.734;9.152;2024-01-06T12:14:33;5.70;99.90
947;DHT22;460;48.734;9.152;2024-01-06T12:17:01;5.70;99.90
947;DHT22;460;48.734;9.152;2024-01-06T12:19:29;5.70;99.90
947;DHT22;460;48.734;9.152;2024-01-06T12:21:56;5.60;99.90
947;DHT22;460;48.734;9.152;2024-01-06T12:24:24;5.60;99.90
947;DHT22;460;48.734;9.152;2024-01-06T12:26:51;5.70;99.90
947;DHT22;460;48.734;9.152;2024-01-06T12:29:17;5.60;99.90
947;DHT22;460;48.734;9.152;2024-01-06T12:31:45;5.60;99.90
947;DHT22;460;48.734;9.152;2024-01-06T12:34:14;5.80;99.90
947;DHT22;460;48.734;9.152;2024-01-06T12:36:41;5.70;99.90
947;DHT22;460;48.734;9.152;2024-01-06T12:39:11;5.80;99.90
947;DHT22;460;48.734;9.152;2024-01-06T12:41:39;5.80;99.90
947;DHT22;460;48.734;9.152;2024-01-06T12:44:07;5.70;99.90
947;DHT22;460;48.734;9.152;2024-01-06T12:46:35;5.60;99.90
947;DHT22;460;48.734;9.152;2024-01-06T12:49:02;5.50;99.90
947;DHT22;460;48.734;9.152;2024-01-06T12:51:30;5.50;99.90
947;DHT22;460;48.734;9.152;2024-01-06T12:53:57;5.60;99.90
947;DHT22;460;48.734;9.152;2024-01-06T12:56:24;5.50;99.90
947;DHT22;460;48.734;9.152;2024-01-06T12:58:51;5.50;99.90
947;DHT22;460;48.734;9.152;2024-01-06T13:01:17;5.40;99.90
947;DHT22;460;48.734;9.152;2024-01-06T13:03:44;5.50;99.90
947;DHT22;460;48.734;9.152;2024-01-06T13:06:11;5.40;99.90
947;DHT22;460;48.734;9.152;2024-01-06T13:08:39;5.50;99.90
947;DHT22;460;48.734;9.152;2024-01-06T13:11:06;5.50;99.90
947;DHT22;460;48.734;9.152;2024-01-06T13:13:33;5.50;99.90
947;DHT22;460;48.734;9.152;2024-01-06T13:16:00;5.50;99.90
947;DHT22;460;48.734;9.152;2024-01-06T13:18:28;5.50;99.90
947;DHT22;460;48.734;9.152;2024-01-06T13:20:55;5.70;99.90
947;DHT22;460;48.734;9.152;2024-01-06T13:23:22;5.50;99.90
947;DHT22;460;48.734;9.152;2024-01-06T13:25:50;5.50;99.90
947;DHT22;460;48.734;9.152;2024-01-06T13:28:17;5.50;99.90
947;DHT22;460;48.734;9.152;2024-01-06T13:30:44;5.50;99.90
947;DHT22;460;48.734;9.152;2024-01-06T13:33:11;5.40;99.90
947;DHT22;460;48.734;9.152;2024-01-06T13:35:38;5.50;99.90
947;DHT22;460;48.734;9.152;2024-01-06T13:38:05;5.40;99.90
947;DHT22;460;48.734;9.152;2024-01-06T13:40:34;5.50;99.90
947;DHT22;460;48.734;9.152;2024-01-06T13:43:02;5.50;99.90
947;DHT22;460;48.734;9.152;2024-01-06T13:45:32;5.40;99.90
947;DHT22;460;48.734;9.152;2024-01-06T13:47:59;5.40;99.90
947;DHT22;460;48.734;9.152;2024-01-06T13:50:25;5.30;99.90
947;DHT22;460;48.734;9.152;2024-01-06T13:52:52;5.20;99.90
947;DHT22;460;48.734;9.152;2024-01-06T13:55:20;5.30;99.90
947;DHT22;460;48.734;9.152;2024-01-06T13:57:46;5.30;99.90
947;DHT22;460;48.734;9.152;2024-01-06T14:00:15;5.30;99.90
947;DHT22;460;48.734;9.152;2024-01-06T14:02:44;5.30;99.90
947;DHT22;460;48.734;9.152;2024-01-06T14:05:12;5.40;99.90
947;DHT22;460;48.734;9.152;2024-01-06T14:07:39;5.40;99.90
947;DHT22;460;48.734;9.152;2024-01-06T14:10:10;5.30;99.90
947;DHT22;460;48.734;9.152;2024-01-06T14:12:37;5.30;99.90
947;DHT22;460;48.734;9.152;2024-01-06T14:15:07;5.20;99.90
947;DHT22;460;48.734;9.152;2024-01-06T14:17:35;5.30;99.90
947;DHT22;460;48.734;9.152;2024-01-06T14:20:02;5.30;99.90
947;DHT22;460;48.734;9.152;2024-01-06T14:22:30;5.30;99.90
947;DHT22;460;48.734;9.152;2024-01-06T14:24:56;5.30;99.90
947;DHT22;460;48.734;9.152;2024-01-06T14:27:23;5.10;99.90
947;DHT22;460;48.734;9.152;2024-01-06T14:29:51;5.10;99.90
947;DHT22;460;48.734;9.152;2024-01-06T14:32:21;5.20;99.90
947;DHT22;460;48.734;9.152;2024-01-06T14:34:50;5.20;99.90
947;DHT22;460;48.734;9.152;2024-01-06T14:37:17;5.30;99.90
947;DHT22;460;48.734;9.152;2024-01-06T14:39:44;5.30;99.90
947;DHT22;460;48.734;9.152;2024-01-06T14:42:11;5.10;99.90
947;DHT22;460;48.734;9.152;2024-01-06T14:44:37;5.00;99.90
947;DHT22;460;48.734;9.152;2024-01-06T14:47:05;5.10;99.90
947;DHT22;460;48.734;9.152;2024-01-06T14:49:32;5.10;99.90
947;DHT22;460;48.734;9.152;2024-01-06T14:52:01;5.00;99.90
947;DHT22;460;48.734;9.152;2024-01-06T14:54:29;5.00;99.90
947;DHT22;460;48.734;9.152;2024-01-06T14:56:58;5.00;99.90
947;DHT22;460;48.734;9.152;2024-01-06T14:59:25;5.10;99.90
947;DHT22;460;48.734;9.152;2024-01-06T15:01:52;5.00;99.90
947;DHT22;460;48.734;9.152;2024-01-06T15:04:19;5.00;99.90
947;DHT22;460;48.734;9.152;2024-01-06T15:06:46;5.10;99.90
947;DHT22;460;48.734;9.152;2024-01-06T15:09:14;5.10;99.90
947;DHT22;460;48.734;9.152;2024-01-06T15:11:41;5.00;99.90
947;DHT22;460;48.734;9.152;2024-01-06T15:14:07;5.00;99.90
947;DHT22;460;48.734;9.152;2024-01-06T15:16:34;4.80;99.90
947;DHT22;460;48.734;9.152;2024-01-06T15:19:02;5.00;99.90
947;DHT22;460;48.734;9.152;2024-01-06T15:21:29;5.00;99.90
947;DHT22;460;48.734;9.152;2024-01-06T15:23:58;5.00;99.90
947;DHT22;460;48.734;9.152;2024-01-06T15:26:27;5.00;99.90
947;DHT22;460;48.734;9.152;2024-01-06T15:28:53;5.00;99.90
947;DHT22;460;48.734;9.152;2024-01-06T15:31:21;5.00;99.90
947;DHT22;460;48.734;9.152;2024-01-06T15:33:48;4.90;99.90
947;DHT22;460;48.734;9.152;2024-01-06T15:36:15;4.90;99.90
947;DHT22;460;48.734;9.152;2024-01-06T15:38:42;4.90;99.90
947;DHT22;460;48.734;9.152;2024-01-06T15:41:09;4.90;99.90
947;DHT22;460;48.734;9.152;2024-01-06T15:43:37;4.80;99.90
947;DHT22;460;48.734;9.152;2024-01-06T15:46:04;4.80;99.90
947;DHT22;460;48.734;9.152;2024-01-06T15:48:31;4.80;99.90
947;DHT22;460;48.734;9.152;2024-01-06T15:50:58;4.80;99.90
947;DHT22;460;48.734;9.152;2024-01-06T15:53:24;4.80;99.90
947;DHT22;460;48.734;9.152;2024-01-06T15:55:51;4.80;99.90
947;DHT22;460;48.734;9.152;2024-01-06T15:58:18;4.70;99.90
947;DHT22;460;48.734;9.152;2024-01-06T16:00:46;4.80;99.90
947;DHT22;460;48.734;9.152;2024-01-06T16:03:13;4.80;99.90
947;DHT22;460;48.734;9.152;2024-01-06T16:05:40;4.70;99.90
947;DHT22;460;48.734;9.152;2024-01-06T16:08:07;4.80;99.90
947;DHT22;460;48.734;9.152;2024-01-06T16:10:34;4.80;99.90
947;DHT22;460;48.734;9.152;2024-01-06T16:13:02;4.70;99.90
947;DHT22;460;48.734;9.152;2024-01-06T16:15:29;4.70;99.90
947;DHT22;460;48.734;9.152;2024-01-06T16:17:57;4.70;99.90
947;DHT22;460;48.734;9.152;2024-01-06T16:20:24;4.70;99.90
947;DHT22;460;48.734;9.152;2024-01-06T16:22:51;4.60;99.90
947;DHT22;460;48.734;9.152;2024-01-06T16:25:19;4.80;99.90
947;DHT22;460;48.734;9.152;2024-01-06T16:27:46;4.70;99.90
947;DHT22;460;48.734;9.152;2024-01-06T16:30:13;4.80;99.90
947;DHT22;460;48.734;9.152;2024-01-06T16:32:40;4.70;99.90
947;DHT22;460;48.734;9.152;2024-01-06T16:35:08;4.80;99.90
947;DHT22;460;48.734;9.152;2024-01-06T16:37:34;4.80;99.90
947;DHT22;460;48.734;9.152;2024-01-06T16:40:01;4.80;99.90
947;DHT22;460;48.734;9.152;2024-01-06T16:42:28;4.80;99.90
947;DHT22;460;48.734;9.152;2024-01-06T16:44:55;4.70;99.90
947;DHT22;460;48.734;9.152;2024-01-06T16:47:22;4.70;99.90
947;DHT22;460;48.734;9.152;2024-01-06T16:49:50;4.70;99.90
947;DHT22;460;48.734;9.152;2024-01-06T16:52:18;4.80;99.90
947;DHT22;460;48.734;9.152;2024-01-06T16:54:45;4.80;99.90
947;DHT22;460;48.734;9.152;2024-01-06T16:57:11;4.70;99.90